sensor_id;sensor_type;location;lat;lon;timestamp;P1;durP1;ratioP1;P2;durP2;ratioP2
20629;SDS011;17386;43.846;25.950;2022-11-21T00:00:38;16.65;;;7.55;;
20629;SDS011;17386;43.846;25.950;2022-11-21T00:03:04;18.67;;;8.07;;
20629;SDS011;17386;43.846;25.950;2022-11-21T00:05:30;18.15;;;8.25;;
20629;SDS011;17386;43.846;25.950;2022-11-21T00:07:57;16.13;;;8.65;;
20629;SDS011;17386;43.846;25.950;2022-11-21T00:10:23;15.98;;;8.52;;
20629;SDS011;17386;43.846;25.950;2022-11-21T00:12:53;16.27;;;8.75;;
20629;SDS011;17386;43.846;25.950;2022-11-21T00:15:20;20.20;;;9.13;;
20629;SDS011;17386;43.846;25.950;2022-11-21T00:17:45;19.00;;;9.15;;
20629;SDS011;17386;43.846;25.950;2022-11-21T00:20:11;16.42;;;7.85;;
20629;SDS011;17386;43.846;25.950;2022-11-21T00:22:36;17.38;;;8.18;;
20629;SDS011;17386;43.846;25.950;2022-11-21T00:25:02;17.23;;;8.15;;
20629;SDS011;17386;43.846;25.950;2022-11-21T00:27:27;17.40;;;8.10;;
20629;SDS011;17386;43.846;25.950;2022-11-21T00:29:53;19.42;;;9.13;;
20629;SDS011;17386;43.846;25.950;2022-11-21T00:32:18;17.50;;;8.23;;
20629;SDS011;17386;43.846;25.950;2022-11-21T00:34:44;19.52;;;9.00;;
20629;SDS011;17386;43.846;25.950;2022-11-21T00:37:09;18.73;;;9.15;;
20629;SDS011;17386;43.846;25.950;2022-11-21T00:39:34;20.00;;;9.63;;
20629;SDS011;17386;43.846;25.950;2022-11-21T00:42:00;23.38;;;10.20;;
20629;SDS011;17386;43.846;25.950;2022-11-21T00:44:25;23.88;;;10.85;;
20629;SDS011;17386;43.846;25.950;2022-11-21T00:46:51;27.20;;;10.80;;
20629;SDS011;17386;43.846;25.950;2022-11-21T00:49:16;27.15;;;10.88;;
20629;SDS011;17386;43.846;25.950;2022-11-21T00:51:41;22.52;;;9.77;;
20629;SDS011;17386;43.846;25.950;2022-11-21T00:54:07;25.95;;;10.77;;
20629;SDS011;17386;43.846;25.950;2022-11-21T00:56:33;27.05;;;10.95;;
20629;SDS011;17386;43.846;25.950;2022-11-21T00:58:58;27.50;;;10.50;;
20629;SDS011;17386;43.846;25.950;2022-11-21T01:01:23;20.55;;;9.93;;
20629;SDS011;17386;43.846;25.950;2022-11-21T01:03:49;21.42;;;9.98;;
20629;SDS011;17386;43.846;25.950;2022-11-21T01:06:14;20.05;;;8.68;;
20629;SDS011;17386;43.846;25.950;2022-11-21T01:08:40;23.20;;;10.30;;
20629;SDS011;17386;43.846;25.950;2022-11-21T01:11:10;22.63;;;10.30;;
20629;SDS011;17386;43.846;25.950;2022-11-21T01:13:37;26.60;;;11.18;;
20629;SDS011;17386;43.846;25.950;2022-11-21T01:18:33;23.80;;;10.77;;
20629;SDS011;17386;43.846;25.950;2022-11-21T01:21:03;22.48;;;10.68;;
20629;SDS011;17386;43.846;25.950;2022-11-21T01:23:36;24.25;;;9.70;;
20629;SDS011;17386;43.846;25.950;2022-11-21T01:26:02;19.95;;;9.38;;
20629;SDS011;17386;43.846;25.950;2022-11-21T01:28:33;20.58;;;9.90;;
20629;SDS011;17386;43.846;25.950;2022-11-21T01:31:06;18.30;;;9.15;;
20629;SDS011;17386;43.846;25.950;2022-11-21T01:33:33;20.10;;;8.63;;
20629;SDS011;17386;43.846;25.950;2022-11-21T01:36:33;19.55;;;8.50;;
20629;SDS011;17386;43.846;25.950;2022-11-21T01:38:53;19.30;;;9.32;;
20629;SDS011;17386;43.846;25.950;2022-11-21T01:41:21;22.85;;;9.45;;
20629;SDS011;17386;43.846;25.950;2022-11-21T01:43:48;20.92;;;9.80;;
20629;SDS011;17386;43.846;25.950;2022-11-21T01:46:15;23.80;;;9.77;;
20629;SDS011;17386;43.846;25.950;2022-11-21T01:51:19;19.80;;;9.40;;
20629;SDS011;17386;43.846;25.950;2022-11-21T01:53:59;17.50;;;8.68;;
20629;SDS011;17386;43.846;25.950;2022-11-21T01:56:29;20.42;;;9.23;;
20629;SDS011;17386;43.846;25.950;2022-11-21T01:58:58;17.65;;;8.60;;
20629;SDS011;17386;43.846;25.950;2022-11-21T02:01:26;17.88;;;8.20;;
20629;SDS011;17386;43.846;25.950;2022-11-21T02:03:53;14.82;;;7.25;;
20629;SDS011;17386;43.846;25.950;2022-11-21T02:06:20;16.60;;;7.95;;
20629;SDS011;17386;43.846;25.950;2022-11-21T02:08:48;16.27;;;7.60;;
20629;SDS011;17386;43.846;25.950;2022-11-21T02:11:48;14.38;;;7.07;;
20629;SDS011;17386;43.846;25.950;2022-11-21T02:14:14;14.48;;;7.20;;
20629;SDS011;17386;43.846;25.950;2022-11-21T02:16:40;14.18;;;7.22;;
20629;SDS011;17386;43.846;25.950;2022-11-21T02:19:09;17.20;;;7.88;;
20629;SDS011;17386;43.846;25.950;2022-11-21T02:21:59;18.52;;;7.93;;
20629;SDS011;17386;43.846;25.950;2022-11-21T02:27:03;18.30;;;8.40;;
20629;SDS011;17386;43.846;25.950;2022-11-21T02:29:29;17.17;;;8.75;;
20629;SDS011;17386;43.846;25.950;2022-11-21T02:31:57;17.60;;;8.38;;
20629;SDS011;17386;43.846;25.950;2022-11-21T02:34:24;17.67;;;8.10;;
20629;SDS011;17386;43.846;25.950;2022-11-21T02:36:49;18.90;;;8.35;;
20629;SDS011;17386;43.846;25.950;2022-11-21T02:39:17;16.55;;;7.45;;
20629;SDS011;17386;43.846;25.950;2022-11-21T02:41:53;18.23;;;7.95;;
20629;SDS011;17386;43.846;25.950;2022-11-21T02:44:28;15.95;;;7.07;;
20629;SDS011;17386;43.846;25.950;2022-11-21T02:47:02;16.77;;;8.30;;
20629;SDS011;17386;43.846;25.950;2022-11-21T02:49:33;18.40;;;8.63;;
20629;SDS011;17386;43.846;25.950;2022-11-21T02:52:06;18.77;;;8.10;;
20629;SDS011;17386;43.846;25.950;2022-11-21T02:54:31;18.80;;;7.60;;
20629;SDS011;17386;43.846;25.950;2022-11-21T02:56:57;17.55;;;7.65;;
20629;SDS011;17386;43.846;25.950;2022-11-21T02:59:22;18.48;;;8.02;;
20629;SDS011;17386;43.846;25.950;2022-11-21T03:01:47;20.33;;;8.32;;
20629;SDS011;17386;43.846;25.950;2022-11-21T03:04:13;21.77;;;10.32;;
20629;SDS011;17386;43.846;25.950;2022-11-21T03:06:38;21.92;;;8.88;;
20629;SDS011;17386;43.846;25.950;2022-11-21T03:09:04;31.05;;;10.48;;
20629;SDS011;17386;43.846;25.950;2022-11-21T03:11:29;28.25;;;10.20;;
20629;SDS011;17386;43.846;25.950;2022-11-21T03:13:54;28.40;;;10.52;;
20629;SDS011;17386;43.846;25.950;2022-11-21T03:16:20;30.85;;;11.18;;
20629;SDS011;17386;43.846;25.950;2022-11-21T03:18:45;31.65;;;10.93;;
20629;SDS011;17386;43.846;25.950;2022-11-21T03:21:10;29.38;;;10.85;;
20629;SDS011;17386;43.846;25.950;2022-11-21T03:23:36;27.50;;;10.48;;
20629;SDS011;17386;43.846;25.950;2022-11-21T03:26:01;34.88;;;11.20;;
20629;SDS011;17386;43.846;25.950;2022-11-21T03:28:27;26.40;;;11.38;;
20629;SDS011;17386;43.846;25.950;2022-11-21T03:30:52;32.33;;;10.95;;
20629;SDS011;17386;43.846;25.950;2022-11-21T03:33:17;24.17;;;9.32;;
20629;SDS011;17386;43.846;25.950;2022-11-21T03:35:43;24.17;;;9.85;;
20629;SDS011;17386;43.846;25.950;2022-11-21T03:38:08;19.95;;;7.88;;
20629;SDS011;17386;43.846;25.950;2022-11-21T03:40:33;20.08;;;8.15;;
20629;SDS011;17386;43.846;25.950;2022-11-21T03:43:03;20.67;;;8.63;;
20629;SDS011;17386;43.846;25.950;2022-11-21T03:45:29;23.65;;;9.10;;
20629;SDS011;17386;43.846;25.950;2022-11-21T03:47:55;23.52;;;9.13;;
20629;SDS011;17386;43.846;25.950;2022-11-21T03:50:20;23.08;;;8.95;;
20629;SDS011;17386;43.846;25.950;2022-11-21T03:52:46;23.42;;;9.07;;
20629;SDS011;17386;43.846;25.950;2022-11-21T03:55:11;22.63;;;9.65;;
20629;SDS011;17386;43.846;25.950;2022-11-21T03:57:37;25.13;;;10.68;;
20629;SDS011;17386;43.846;25.950;2022-11-21T04:00:03;29.42;;;11.23;;
20629;SDS011;17386;43.846;25.950;2022-11-21T04:02:29;22.55;;;8.82;;
20629;SDS011;17386;43.846;25.950;2022-11-21T04:04:54;17.92;;;7.07;;
20629;SDS011;17386;43.846;25.950;2022-11-21T04:07:19;18.02;;;7.28;;
20629;SDS011;17386;43.846;25.950;2022-11-21T04:09:45;17.90;;;6.72;;
20629;SDS011;17386;43.846;25.950;2022-11-21T04:12:10;15.32;;;6.30;;
20629;SDS011;17386;43.846;25.950;2022-11-21T04:14:35;12.05;;;5.80;;
20629;SDS011;17386;43.846;25.950;2022-11-21T04:17:01;12.60;;;5.60;;
20629;SDS011;17386;43.846;25.950;2022-11-21T04:19:26;12.77;;;5.35;;
20629;SDS011;17386;43.846;25.950;2022-11-21T04:21:52;15.65;;;6.40;;
20629;SDS011;17386;43.846;25.950;2022-11-21T04:24:17;14.93;;;6.38;;
20629;SDS011;17386;43.846;25.950;2022-11-21T04:26:42;12.32;;;5.90;;
20629;SDS011;17386;43.846;25.950;2022-11-21T04:29:08;13.68;;;5.72;;
20629;SDS011;17386;43.846;25.950;2022-11-21T04:31:33;16.05;;;6.20;;
20629;SDS011;17386;43.846;25.950;2022-11-21T04:33:59;13.35;;;5.50;;
20629;SDS011;17386;43.846;25.950;2022-11-21T04:36:24;16.50;;;6.30;;
20629;SDS011;17386;43.846;25.950;2022-11-21T04:38:49;16.17;;;6.72;;
20629;SDS011;17386;43.846;25.950;2022-11-21T04:41:15;16.52;;;6.55;;
20629;SDS011;17386;43.846;25.950;2022-11-21T04:43:40;15.30;;;6.40;;
20629;SDS011;17386;43.846;25.950;2022-11-21T04:46:05;18.58;;;6.72;;
20629;SDS011;17386;43.846;25.950;2022-11-21T04:48:31;20.20;;;7.22;;
20629;SDS011;17386;43.846;25.950;2022-11-21T04:50:56;18.05;;;7.43;;
20629;SDS011;17386;43.846;25.950;2022-11-21T04:53:22;21.35;;;7.75;;
20629;SDS011;17386;43.846;25.950;2022-11-21T04:55:47;14.55;;;7.10;;
20629;SDS011;17386;43.846;25.950;2022-11-21T04:58:13;16.17;;;6.50;;
20629;SDS011;17386;43.846;25.950;2022-11-21T05:00:38;19.20;;;6.82;;
20629;SDS011;17386;43.846;25.950;2022-11-21T05:03:04;16.92;;;7.85;;
20629;SDS011;17386;43.846;25.950;2022-11-21T05:05:30;16.38;;;6.72;;
20629;SDS011;17386;43.846;25.950;2022-11-21T05:07:56;16.77;;;6.45;;
20629;SDS011;17386;43.846;25.950;2022-11-21T05:10:21;17.17;;;7.43;;
20629;SDS011;17386;43.846;25.950;2022-11-21T05:12:47;13.65;;;6.70;;
20629;SDS011;17386;43.846;25.950;2022-11-21T05:15:39;14.57;;;5.35;;
20629;SDS011;17386;43.846;25.950;2022-11-21T05:18:04;14.73;;;5.85;;
20629;SDS011;17386;43.846;25.950;2022-11-21T05:20:30;14.98;;;5.97;;
20629;SDS011;17386;43.846;25.950;2022-11-21T05:22:55;14.55;;;5.80;;
20629;SDS011;17386;43.846;25.950;2022-11-21T05:25:21;15.10;;;6.65;;
20629;SDS011;17386;43.846;25.950;2022-11-21T05:27:46;14.25;;;5.57;;
20629;SDS011;17386;43.846;25.950;2022-11-21T05:30:11;14.85;;;6.25;;
20629;SDS011;17386;43.846;25.950;2022-11-21T05:32:37;15.07;;;5.70;;
20629;SDS011;17386;43.846;25.950;2022-11-21T05:35:03;17.27;;;5.72;;
20629;SDS011;17386;43.846;25.950;2022-11-21T05:37:29;15.00;;;6.10;;
20629;SDS011;17386;43.846;25.950;2022-11-21T05:39:54;16.80;;;7.25;;
20629;SDS011;17386;43.846;25.950;2022-11-21T05:42:20;15.63;;;7.00;;
20629;SDS011;17386;43.846;25.950;2022-11-21T05:45:05;16.45;;;6.72;;
20629;SDS011;17386;43.846;25.950;2022-11-21T05:47:31;15.35;;;7.55;;
20629;SDS011;17386;43.846;25.950;2022-11-21T05:49:57;18.40;;;7.72;;
20629;SDS011;17386;43.846;25.950;2022-11-21T05:52:22;19.40;;;7.60;;
20629;SDS011;17386;43.846;25.950;2022-11-21T05:54:47;17.25;;;7.25;;
20629;SDS011;17386;43.846;25.950;2022-11-21T05:57:13;19.80;;;7.57;;
20629;SDS011;17386;43.846;25.950;2022-11-21T05:59:38;21.25;;;8.57;;
20629;SDS011;17386;43.846;25.950;2022-11-21T06:02:03;18.10;;;7.60;;
20629;SDS011;17386;43.846;25.950;2022-11-21T06:04:47;16.95;;;7.78;;
20629;SDS011;17386;43.846;25.950;2022-11-21T06:07:13;18.02;;;7.90;;
20629;SDS011;17386;43.846;25.950;2022-11-21T06:09:38;18.90;;;6.95;;
20629;SDS011;17386;43.846;25.950;2022-11-21T06:12:03;15.95;;;6.85;;
20629;SDS011;17386;43.846;25.950;2022-11-21T06:14:29;16.45;;;7.85;;
20629;SDS011;17386;43.846;25.950;2022-11-21T06:16:54;18.85;;;7.38;;
20629;SDS011;17386;43.846;25.950;2022-11-21T06:19:20;21.05;;;7.93;;
20629;SDS011;17386;43.846;25.950;2022-11-21T06:21:45;21.90;;;8.02;;
20629;SDS011;17386;43.846;25.950;2022-11-21T06:24:10;18.48;;;8.95;;
20629;SDS011;17386;43.846;25.950;2022-11-21T06:26:36;20.52;;;7.90;;
20629;SDS011;17386;43.846;25.950;2022-11-21T06:29:01;19.85;;;8.23;;
20629;SDS011;17386;43.846;25.950;2022-11-21T06:31:30;18.83;;;8.20;;
20629;SDS011;17386;43.846;25.950;2022-11-21T06:33:58;17.90;;;7.97;;
20629;SDS011;17386;43.846;25.950;2022-11-21T06:36:23;20.20;;;8.00;;
20629;SDS011;17386;43.846;25.950;2022-11-21T06:38:51;19.05;;;7.93;;
20629;SDS011;17386;43.846;25.950;2022-11-21T06:41:18;18.50;;;7.60;;
20629;SDS011;17386;43.846;25.950;2022-11-21T06:43:45;22.75;;;8.73;;
20629;SDS011;17386;43.846;25.950;2022-11-21T06:46:11;20.58;;;8.38;;
20629;SDS011;17386;43.846;25.950;2022-11-21T06:48:37;21.15;;;7.90;;
20629;SDS011;17386;43.846;25.950;2022-11-21T06:51:07;20.08;;;8.63;;
20629;SDS011;17386;43.846;25.950;2022-11-21T06:53:33;20.98;;;8.25;;
20629;SDS011;17386;43.846;25.950;2022-11-21T06:55:59;19.95;;;7.95;;
20629;SDS011;17386;43.846;25.950;2022-11-21T06:58:25;27.55;;;9.30;;
20629;SDS011;17386;43.846;25.950;2022-11-21T07:00:51;19.90;;;8.48;;
20629;SDS011;17386;43.846;25.950;2022-11-21T07:03:17;21.30;;;8.73;;
20629;SDS011;17386;43.846;25.950;2022-11-21T07:05:42;24.30;;;9.02;;
20629;SDS011;17386;43.846;25.950;2022-11-21T07:08:08;20.63;;;8.65;;
20629;SDS011;17386;43.846;25.950;2022-11-21T07:10:33;21.63;;;7.65;;
20629;SDS011;17386;43.846;25.950;2022-11-21T07:12:59;22.73;;;9.30;;
20629;SDS011;17386;43.846;25.950;2022-11-21T07:15:43;22.35;;;10.10;;
20629;SDS011;17386;43.846;25.950;2022-11-21T07:18:10;20.48;;;9.25;;
20629;SDS011;17386;43.846;25.950;2022-11-21T07:20:36;18.75;;;8.50;;
20629;SDS011;17386;43.846;25.950;2022-11-21T07:23:01;23.55;;;8.38;;
20629;SDS011;17386;43.846;25.950;2022-11-21T07:25:27;17.10;;;8.45;;
20629;SDS011;17386;43.846;25.950;2022-11-21T07:27:52;23.17;;;8.85;;
20629;SDS011;17386;43.846;25.950;2022-11-21T07:30:18;17.98;;;7.35;;
20629;SDS011;17386;43.846;25.950;2022-11-21T07:32:43;28.00;;;10.77;;
20629;SDS011;17386;43.846;25.950;2022-11-21T07:35:08;20.17;;;8.25;;
20629;SDS011;17386;43.846;25.950;2022-11-21T07:37:37;23.25;;;9.32;;
20629;SDS011;17386;43.846;25.950;2022-11-21T07:40:04;21.67;;;9.77;;
20629;SDS011;17386;43.846;25.950;2022-11-21T07:42:33;16.75;;;8.48;;
20629;SDS011;17386;43.846;25.950;2022-11-21T07:44:59;20.85;;;8.65;;
20629;SDS011;17386;43.846;25.950;2022-11-21T07:47:24;21.63;;;8.95;;
20629;SDS011;17386;43.846;25.950;2022-11-21T07:49:49;19.70;;;9.10;;
20629;SDS011;17386;43.846;25.950;2022-11-21T07:52:15;19.25;;;8.88;;
20629;SDS011;17386;43.846;25.950;2022-11-21T07:54:40;23.95;;;9.68;;
20629;SDS011;17386;43.846;25.950;2022-11-21T07:57:05;20.15;;;8.95;;
20629;SDS011;17386;43.846;25.950;2022-11-21T07:59:31;26.00;;;11.77;;
20629;SDS011;17386;43.846;25.950;2022-11-21T08:01:59;28.48;;;11.35;;
20629;SDS011;17386;43.846;25.950;2022-11-21T08:04:24;29.70;;;12.15;;
20629;SDS011;17386;43.846;25.950;2022-11-21T08:06:50;25.85;;;10.82;;
20629;SDS011;17386;43.846;25.950;2022-11-21T08:09:15;28.95;;;11.30;;
20629;SDS011;17386;43.846;25.950;2022-11-21T08:11:41;30.48;;;11.18;;
20629;SDS011;17386;43.846;25.950;2022-11-21T08:14:06;19.35;;;9.43;;
20629;SDS011;17386;43.846;25.950;2022-11-21T08:16:32;21.65;;;9.80;;
20629;SDS011;17386;43.846;25.950;2022-11-21T08:18:58;20.95;;;9.63;;
20629;SDS011;17386;43.846;25.950;2022-11-21T08:21:24;22.77;;;9.00;;
20629;SDS011;17386;43.846;25.950;2022-11-21T08:23:50;24.35;;;10.30;;
20629;SDS011;17386;43.846;25.950;2022-11-21T08:26:15;23.77;;;9.20;;
20629;SDS011;17386;43.846;25.950;2022-11-21T08:28:41;21.92;;;8.40;;
20629;SDS011;17386;43.846;25.950;2022-11-21T08:31:06;20.45;;;8.68;;
20629;SDS011;17386;43.846;25.950;2022-11-21T08:33:32;18.20;;;8.45;;
20629;SDS011;17386;43.846;25.950;2022-11-21T08:35:57;19.27;;;8.70;;
20629;SDS011;17386;43.846;25.950;2022-11-21T08:38:23;22.25;;;9.30;;
20629;SDS011;17386;43.846;25.950;2022-11-21T08:40:48;20.63;;;9.77;;
20629;SDS011;17386;43.846;25.950;2022-11-21T08:43:37;16.60;;;8.90;;
20629;SDS011;17386;43.846;25.950;2022-11-21T08:46:02;19.20;;;8.55;;
20629;SDS011;17386;43.846;25.950;2022-11-21T08:48:27;16.88;;;8.73;;
20629;SDS011;17386;43.846;25.950;2022-11-21T08:50:55;22.50;;;9.70;;
20629;SDS011;17386;43.846;25.950;2022-11-21T08:53:21;21.77;;;10.32;;
20629;SDS011;17386;43.846;25.950;2022-11-21T08:55:47;26.40;;;10.85;;
20629;SDS011;17386;43.846;25.950;2022-11-21T08:58:12;25.23;;;10.43;;
20629;SDS011;17386;43.846;25.950;2022-11-21T09:00:38;29.38;;;11.38;;
20629;SDS011;17386;43.846;25.950;2022-11-21T09:03:04;25.55;;;9.63;;
20629;SDS011;17386;43.846;25.950;2022-11-21T09:05:30;24.15;;;10.93;;
20629;SDS011;17386;43.846;25.950;2022-11-21T09:07:56;26.05;;;11.32;;
20629;SDS011;17386;43.846;25.950;2022-11-21T09:10:22;25.52;;;11.38;;
20629;SDS011;17386;43.846;25.950;2022-11-21T09:12:49;30.88;;;11.68;;
20629;SDS011;17386;43.846;25.950;2022-11-21T09:15:14;29.92;;;10.82;;
20629;SDS011;17386;43.846;25.950;2022-11-21T09:18:01;21.92;;;9.40;;
20629;SDS011;17386;43.846;25.950;2022-11-21T09:20:37;27.00;;;10.38;;
20629;SDS011;17386;43.846;25.950;2022-11-21T09:23:04;24.15;;;10.27;;
20629;SDS011;17386;43.846;25.950;2022-11-21T09:25:32;28.05;;;11.18;;
20629;SDS011;17386;43.846;25.950;2022-11-21T09:27:58;21.08;;;9.60;;
20629;SDS011;17386;43.846;25.950;2022-11-21T09:30:28;26.75;;;10.75;;
20629;SDS011;17386;43.846;25.950;2022-11-21T09:32:53;23.83;;;10.07;;
20629;SDS011;17386;43.846;25.950;2022-11-21T09:35:23;26.92;;;10.65;;
20629;SDS011;17386;43.846;25.950;2022-11-21T09:37:48;26.65;;;11.27;;
20629;SDS011;17386;43.846;25.950;2022-11-21T09:40:15;30.42;;;10.90;;
20629;SDS011;17386;43.846;25.950;2022-11-21T09:42:51;29.17;;;12.55;;
20629;SDS011;17386;43.846;25.950;2022-11-21T09:45:32;32.35;;;11.30;;
20629;SDS011;17386;43.846;25.950;2022-11-21T09:48:23;28.23;;;12.23;;
20629;SDS011;17386;43.846;25.950;2022-11-21T09:51:04;30.00;;;12.25;;
20629;SDS011;17386;43.846;25.950;2022-11-21T09:53:35;30.33;;;11.63;;
20629;SDS011;17386;43.846;25.950;2022-11-21T09:56:13;34.60;;;12.52;;
20629;SDS011;17386;43.846;25.950;2022-11-21T09:59:27;30.63;;;11.57;;
20629;SDS011;17386;43.846;25.950;2022-11-21T10:01:41;37.92;;;12.93;;
20629;SDS011;17386;43.846;25.950;2022-11-21T10:04:06;32.58;;;12.95;;
20629;SDS011;17386;43.846;25.950;2022-11-21T10:06:35;37.95;;;13.48;;
20629;SDS011;17386;43.846;25.950;2022-11-21T10:21:16;37.70;;;14.35;;
20629;SDS011;17386;43.846;25.950;2022-11-21T10:27:15;22.35;;;8.38;;
20629;SDS011;17386;43.846;25.950;2022-11-21T10:29:49;13.65;;;6.50;;
20629;SDS011;17386;43.846;25.950;2022-11-21T10:32:23;9.77;;;4.70;;
20629;SDS011;17386;43.846;25.950;2022-11-21T10:34:52;8.82;;;5.50;;
20629;SDS011;17386;43.846;25.950;2022-11-21T10:37:34;7.05;;;4.70;;
20629;SDS011;17386;43.846;25.950;2022-11-21T10:40:44;7.78;;;4.43;;
20629;SDS011;17386;43.846;25.950;2022-11-21T10:46:01;6.60;;;4.22;;
20629;SDS011;17386;43.846;25.950;2022-11-21T10:48:26;5.90;;;3.95;;
20629;SDS011;17386;43.846;25.950;2022-11-21T10:54:07;4.72;;;2.95;;
20629;SDS011;17386;43.846;25.950;2022-11-21T10:56:53;4.10;;;2.92;;
20629;SDS011;17386;43.846;25.950;2022-11-21T10:59:24;4.50;;;3.20;;
20629;SDS011;17386;43.846;25.950;2022-11-21T11:01:53;4.45;;;3.17;;
20629;SDS011;17386;43.846;25.950;2022-11-21T11:04:23;6.78;;;3.33;;
20629;SDS011;17386;43.846;25.950;2022-11-21T11:11:47;4.78;;;3.05;;
20629;SDS011;17386;43.846;25.950;2022-11-21T11:14:13;6.95;;;3.90;;
20629;SDS011;17386;43.846;25.950;2022-11-21T11:16:43;5.80;;;3.83;;
20629;SDS011;17386;43.846;25.950;2022-11-21T11:26:33;6.25;;;3.15;;
20629;SDS011;17386;43.846;25.950;2022-11-21T11:29:17;5.55;;;2.97;;
20629;SDS011;17386;43.846;25.950;2022-11-21T11:34:13;4.35;;;3.15;;
20629;SDS011;17386;43.846;25.950;2022-11-21T11:48:13;4.20;;;3.00;;
20629;SDS011;17386;43.846;25.950;2022-11-21T11:50:50;5.38;;;3.50;;
20629;SDS011;17386;43.846;25.950;2022-11-21T11:53:22;5.47;;;3.67;;
20629;SDS011;17386;43.846;25.950;2022-11-21T11:55:55;5.38;;;3.80;;
20629;SDS011;17386;43.846;25.950;2022-11-21T11:58:44;5.63;;;3.85;;
20629;SDS011;17386;43.846;25.950;2022-11-21T12:04:30;4.10;;;2.72;;
20629;SDS011;17386;43.846;25.950;2022-11-21T12:12:32;4.10;;;2.53;;
20629;SDS011;17386;43.846;25.950;2022-11-21T12:17:57;4.32;;;2.83;;
20629;SDS011;17386;43.846;25.950;2022-11-21T12:20:29;3.53;;;2.60;;
20629;SDS011;17386;43.846;25.950;2022-11-21T12:23:00;3.40;;;2.45;;
20629;SDS011;17386;43.846;25.950;2022-11-21T12:25:30;3.85;;;2.38;;
20629;SDS011;17386;43.846;25.950;2022-11-21T12:28:00;3.55;;;2.30;;
20629;SDS011;17386;43.846;25.950;2022-11-21T12:33:04;2.13;;;1.33;;
20629;SDS011;17386;43.846;25.950;2022-11-21T12:38:15;1.63;;;1.20;;
20629;SDS011;17386;43.846;25.950;2022-11-21T12:44:15;1.98;;;1.23;;
20629;SDS011;17386;43.846;25.950;2022-11-21T12:47:06;2.67;;;1.60;;
20629;SDS011;17386;43.846;25.950;2022-11-21T12:49:54;1.65;;;1.23;;
20629;SDS011;17386;43.846;25.950;2022-11-21T12:52:54;2.72;;;1.50;;
20629;SDS011;17386;43.846;25.950;2022-11-21T12:55:46;3.05;;;1.30;;
20629;SDS011;17386;43.846;25.950;2022-11-21T13:06:11;3.47;;;1.60;;
20629;SDS011;17386;43.846;25.950;2022-11-21T13:08:40;2.22;;;1.50;;
20629;SDS011;17386;43.846;25.950;2022-11-21T13:11:27;2.00;;;1.60;;
20629;SDS011;17386;43.846;25.950;2022-11-21T13:17:21;1.88;;;1.30;;
20629;SDS011;17386;43.846;25.950;2022-11-21T13:19:59;2.20;;;1.50;;
20629;SDS011;17386;43.846;25.950;2022-11-21T13:22:53;2.58;;;1.52;;
20629;SDS011;17386;43.846;25.950;2022-11-21T13:25:39;2.40;;;1.75;;
20629;SDS011;17386;43.846;25.950;2022-11-21T13:30:45;2.67;;;1.77;;
20629;SDS011;17386;43.846;25.950;2022-11-21T13:33:33;2.95;;;2.00;;
20629;SDS011;17386;43.846;25.950;2022-11-21T13:38:24;4.38;;;2.30;;
20629;SDS011;17386;43.846;25.950;2022-11-21T13:40:49;6.82;;;2.97;;
20629;SDS011;17386;43.846;25.950;2022-11-21T13:43:34;3.60;;;2.25;;
20629;SDS011;17386;43.846;25.950;2022-11-21T13:46:00;3.63;;;2.25;;
20629;SDS011;17386;43.846;25.950;2022-11-21T14:07:26;3.08;;;1.60;;
20629;SDS011;17386;43.846;25.950;2022-11-21T14:10:00;3.03;;;1.67;;
20629;SDS011;17386;43.846;25.950;2022-11-21T14:20:26;2.67;;;1.50;;
20629;SDS011;17386;43.846;25.950;2022-11-21T14:28:05;2.35;;;1.27;;
20629;SDS011;17386;43.846;25.950;2022-11-21T14:30:39;2.17;;;1.10;;
20629;SDS011;17386;43.846;25.950;2022-11-21T14:33:22;2.47;;;1.30;;
20629;SDS011;17386;43.846;25.950;2022-11-21T14:38:39;7.30;;;3.63;;
20629;SDS011;17386;43.846;25.950;2022-11-21T14:43:38;2.53;;;1.48;;
20629;SDS011;17386;43.846;25.950;2022-11-21T14:46:04;3.70;;;1.50;;
20629;SDS011;17386;43.846;25.950;2022-11-21T14:48:36;2.22;;;1.30;;
20629;SDS011;17386;43.846;25.950;2022-11-21T14:51:02;3.97;;;1.60;;
20629;SDS011;17386;43.846;25.950;2022-11-21T14:53:27;3.30;;;1.40;;
20629;SDS011;17386;43.846;25.950;2022-11-21T14:55:53;3.47;;;1.30;;
20629;SDS011;17386;43.846;25.950;2022-11-21T14:58:19;4.10;;;1.40;;
20629;SDS011;17386;43.846;25.950;2022-11-21T15:03:55;3.13;;;1.42;;
20629;SDS011;17386;43.846;25.950;2022-11-21T15:06:21;8.45;;;3.38;;
20629;SDS011;17386;43.846;25.950;2022-11-21T15:08:48;4.15;;;1.95;;
20629;SDS011;17386;43.846;25.950;2022-11-21T15:11:13;3.13;;;1.63;;
20629;SDS011;17386;43.846;25.950;2022-11-21T15:13:41;3.88;;;1.50;;
20629;SDS011;17386;43.846;25.950;2022-11-21T15:16:11;7.53;;;2.13;;
20629;SDS011;17386;43.846;25.950;2022-11-21T15:18:38;3.35;;;1.90;;
20629;SDS011;17386;43.846;25.950;2022-11-21T15:21:05;2.95;;;1.63;;
20629;SDS011;17386;43.846;25.950;2022-11-21T15:23:34;3.70;;;1.98;;
20629;SDS011;17386;43.846;25.950;2022-11-21T15:26:24;3.85;;;2.00;;
20629;SDS011;17386;43.846;25.950;2022-11-21T15:28:59;4.25;;;2.22;;
20629;SDS011;17386;43.846;25.950;2022-11-21T15:31:25;2.95;;;1.70;;
20629;SDS011;17386;43.846;25.950;2022-11-21T15:33:55;6.15;;;2.20;;
20629;SDS011;17386;43.846;25.950;2022-11-21T15:36:28;3.65;;;1.70;;
20629;SDS011;17386;43.846;25.950;2022-11-21T15:41:24;3.45;;;1.75;;
20629;SDS011;17386;43.846;25.950;2022-11-21T15:46:35;5.05;;;2.40;;
20629;SDS011;17386;43.846;25.950;2022-11-21T15:49:06;10.05;;;4.38;;
20629;SDS011;17386;43.846;25.950;2022-11-21T15:54:09;7.43;;;3.42;;
20629;SDS011;17386;43.846;25.950;2022-11-21T15:56:36;3.47;;;1.65;;
20629;SDS011;17386;43.846;25.950;2022-11-21T15:59:02;5.30;;;2.45;;
20629;SDS011;17386;43.846;25.950;2022-11-21T16:01:28;4.32;;;1.90;;
20629;SDS011;17386;43.846;25.950;2022-11-21T16:03:55;4.05;;;1.90;;
20629;SDS011;17386;43.846;25.950;2022-11-21T16:06:22;3.08;;;1.80;;
20629;SDS011;17386;43.846;25.950;2022-11-21T16:08:48;3.83;;;2.03;;
20629;SDS011;17386;43.846;25.950;2022-11-21T16:11:15;5.88;;;2.63;;
20629;SDS011;17386;43.846;25.950;2022-11-21T16:13:49;4.43;;;2.58;;
20629;SDS011;17386;43.846;25.950;2022-11-21T16:16:16;4.32;;;2.40;;
20629;SDS011;17386;43.846;25.950;2022-11-21T16:18:43;4.75;;;2.00;;
20629;SDS011;17386;43.846;25.950;2022-11-21T16:21:09;2.75;;;1.63;;
20629;SDS011;17386;43.846;25.950;2022-11-21T16:23:35;2.70;;;1.77;;
20629;SDS011;17386;43.846;25.950;2022-11-21T16:26:02;3.42;;;2.03;;
20629;SDS011;17386;43.846;25.950;2022-11-21T16:28:28;3.00;;;1.40;;
20629;SDS011;17386;43.846;25.950;2022-11-21T16:30:53;3.30;;;1.50;;
20629;SDS011;17386;43.846;25.950;2022-11-21T16:33:21;4.05;;;1.90;;
20629;SDS011;17386;43.846;25.950;2022-11-21T16:35:46;5.72;;;1.77;;
20629;SDS011;17386;43.846;25.950;2022-11-21T16:38:13;2.97;;;1.65;;
20629;SDS011;17386;43.846;25.950;2022-11-21T16:40:38;2.78;;;1.60;;
20629;SDS011;17386;43.846;25.950;2022-11-21T16:43:08;4.70;;;2.63;;
20629;SDS011;17386;43.846;25.950;2022-11-21T16:45:35;3.10;;;1.90;;
20629;SDS011;17386;43.846;25.950;2022-11-21T16:48:01;2.78;;;1.50;;
20629;SDS011;17386;43.846;25.950;2022-11-21T16:50:27;3.15;;;1.55;;
20629;SDS011;17386;43.846;25.950;2022-11-21T16:52:52;3.75;;;1.80;;